Time;durP1;ratioP1;P1;durP2;ratioP2;P2;SDS_P1;SDS_P2;PMS_P1;PMS_P2;Temp;Humidity;BMP_temperature;BMP_pressure;BME280_temperature;BME280_humidity;BME280_pressure;Samples;Min_cycle;Max_cycle;Signal;HPM_P1;HPM_P2
2024/01/04 00:01:15;;;;;;;43.67;15.45;;;;;;;;;;5054989;28;20192;-82
2024/01/04 00:03:42;;;;;;;19.45;10.40;;;;;;;;;;5055867;28;20192;-81
2024/01/04 00:06:10;;;;;;;57.72;18.95;;;;;;;;;;5056220;28;20645;-81
2024/01/04 00:08:37;;;;;;;39.85;13.63;;;;;;;;;;5054514;28;20203;-81
2024/01/04 00:11:06;;;;;;;63.92;18.35;;;;;;;;;;5054806;28;20235;-81
2024/01/04 00:13:33;;;;;;;22.00;9.95;;;;;;;;;;5054688;28;20677;-81
2024/01/04 00:16:00;;;;;;;24.25;10.20;;;;;;;;;;5054645;28;20184;-81
2024/01/04 00:18:27;;;;;;;25.00;12.45;;;;;;;;;;5056067;28;20204;-81
2024/01/04 00:20:55;;;;;;;19.52;9.43;;;;;;;;;;5055545;28;20208;-81
2024/01/04 00:23:22;;;;;;;27.85;11.15;;;;;;;;;;5055612;28;20203;-81
2024/01/04 00:25:49;;;;;;;27.35;10.23;;;;;;;;;;5055595;28;20212;-81
2024/01/04 00:28:16;;;;;;;26.80;12.65;;;;;;;;;;5055656;28;20214;-81
2024/01/04 00:30:43;;;;;;;25.10;9.25;;;;;;;;;;5055656;28;20224;-82
2024/01/04 00:33:10;;;;;;;23.73;9.23;;;;;;;;;;5055458;28;20207;-81
2024/01/04 00:35:37;;;;;;;22.42;10.45;;;;;;;;;;5054186;28;20256;-82
2024/01/04 00:38:04;;;;;;;42.05;12.57;;;;;;;;;;5054092;28;20308;-81
2024/01/04 00:40:33;;;;;;;82.72;20.05;;;;;;;;;;5054283;28;20207;-82
2024/01/04 00:43:00;;;;;;;29.25;10.00;;;;;;;;;;5054938;28;20242;-82
2024/01/04 00:45:27;;;;;;;21.45;8.68;;;;;;;;;;5055246;28;20211;-81
2024/01/04 00:47:54;;;;;;;20.42;8.55;;;;;;;;;;5053717;28;20204;-82
2024/01/04 00:50:21;;;;;;;38.60;17.05;;;;;;;;;;5055051;28;20220;-82
2024/01/04 00:52:48;;;;;;;20.23;8.38;;;;;;;;;;5055285;28;20211;-81
2024/01/04 00:55:29;;;;;;;31.75;9.80;;;;;;;;;;5054950;28;20211;-81
2024/01/04 00:57:56;;;;;;;19.15;8.88;;;;;;;;;;5053373;28;20216;-80
2024/01/04 01:00:23;;;;;;;22.75;11.25;;;;;;;;;;5053849;28;20216;-80
2024/01/04 01:02:50;;;;;;;25.15;9.00;;;;;;;;;;5054788;28;20203;-79
2024/01/04 01:05:18;;;;;;;38.35;10.85;;;;;;;;;;5053793;28;20192;-80
2024/01/04 01:07:45;;;;;;;27.23;8.83;;;;;;;;;;5054405;28;20222;-79
2024/01/04 01:10:12;;;;;;;19.38;8.13;;;;;;;;;;5053269;28;20215;-79
2024/01/04 01:12:39;;;;;;;22.13;8.57;;;;;;;;;;5053162;28;20196;-80
2024/01/04 01:15:07;;;;;;;26.73;10.13;;;;;;;;;;5054636;28;20876;-79
2024/01/04 01:17:34;;;;;;;18.30;8.43;;;;;;;;;;5053507;28;20282;-79
2024/01/04 01:20:02;;;;;;;19.33;8.45;;;;;;;;;;5054076;28;20274;-78
2024/01/04 01:22:29;;;;;;;25.52;12.93;;;;;;;;;;5053825;28;20734;-82
2024/01/04 01:24:56;;;;;;;29.67;9.73;;;;;;;;;;5054636;28;20203;-82
2024/01/04 01:27:24;;;;;;;39.70;10.85;;;;;;;;;;5053679;28;20287;-82
2024/01/04 01:29:51;;;;;;;31.17;11.27;;;;;;;;;;5053665;28;20219;-82
2024/01/04 01:32:18;;;;;;;47.95;16.83;;;;;;;;;;5053452;28;20228;-82
2024/01/04 01:34:45;;;;;;;23.65;9.85;;;;;;;;;;5054964;28;20212;-82
2024/01/04 01:37:13;;;;;;;53.70;13.20;;;;;;;;;;5037214;28;20207;-82
2024/01/04 01:39:41;;;;;;;32.03;10.68;;;;;;;;;;5053332;28;20200;-82
2024/01/04 01:42:08;;;;;;;35.05;10.75;;;;;;;;;;5053658;28;20199;-82
2024/01/04 01:44:35;;;;;;;70.28;24.25;;;;;;;;;;5053144;28;20712;-82
2024/01/04 01:47:02;;;;;;;27.83;10.38;;;;;;;;;;5053026;28;20680;-82
2024/01/04 01:49:29;;;;;;;34.63;11.35;;;;;;;;;;5054039;28;20219;-82
2024/01/04 01:51:57;;;;;;;46.42;14.02;;;;;;;;;;5054343;28;20657;-77
2024/01/04 01:54:24;;;;;;;48.70;21.23;;;;;;;;;;5053674;28;20211;-77
2024/01/04 01:56:51;;;;;;;29.20;9.48;;;;;;;;;;5053783;28;20269;-77
2024/01/04 01:59:19;;;;;;;23.20;8.63;;;;;;;;;;5052335;28;20208;-77
2024/01/04 02:01:54;;;;;;;43.88;12.02;;;;;;;;;;5036952;28;20200;-77
2024/01/04 02:04:21;;;;;;;32.45;10.48;;;;;;;;;;5036129;28;20208;-77
2024/01/04 02:06:48;;;;;;;52.50;15.77;;;;;;;;;;5053731;28;20204;-77
2024/01/04 02:09:15;;;;;;;29.75;9.55;;;;;;;;;;5052829;28;20216;-78
2024/01/04 02:11:44;;;;;;;19.13;7.53;;;;;;;;;;5053764;28;20218;-83
2024/01/04 02:14:11;;;;;;;22.33;7.97;;;;;;;;;;5054313;28;20272;-82
2024/01/04 02:16:38;;;;;;;43.03;16.60;;;;;;;;;;5053021;28;20254;-82
2024/01/04 02:19:07;;;;;;;42.50;11.00;;;;;;;;;;5053575;28;20192;-83
2024/01/04 02:21:37;;;;;;;22.23;7.38;;;;;;;;;;5037010;28;20711;-82
2024/01/04 02:24:05;;;;;;;33.55;9.20;;;;;;;;;;5052647;28;20188;-83
2024/01/04 02:26:32;;;;;;;42.70;21.13;;;;;;;;;;5054345;28;20211;-82
2024/01/04 02:29:00;;;;;;;37.85;10.50;;;;;;;;;;5052592;28;20196;-83
2024/01/04 02:31:27;;;;;;;23.10;6.38;;;;;;;;;;5054059;28;20555;-83
2024/01/04 02:33:54;;;;;;;26.05;6.47;;;;;;;;;;5053015;28;20200;-82
2024/01/04 02:36:21;;;;;;;42.47;9.73;;;;;;;;;;5053853;28;20203;-83
2024/01/04 02:38:50;;;;;;;39.15;10.07;;;;;;;;;;5052541;28;20196;-83
2024/01/04 02:41:17;;;;;;;53.30;12.10;;;;;;;;;;5036965;28;20683;-84
2024/01/04 02:43:44;;;;;;;19.98;6.00;;;;;;;;;;5052942;28;20232;-83
2024/01/04 02:46:11;;;;;;;27.85;7.70;;;;;;;;;;5054178;28;20200;-84
2024/01/04 02:48:38;;;;;;;29.50;11.98;;;;;;;;;;5054011;28;20192;-84
2024/01/04 02:51:06;;;;;;;30.75;7.18;;;;;;;;;;5052926;28;20216;-83
2024/01/04 02:53:33;;;;;;;20.65;5.03;;;;;;;;;;5053084;28;20192;-83
2024/01/04 02:56:01;;;;;;;19.17;5.18;;;;;;;;;;5054106;28;20718;-83
2024/01/04 02:58:28;;;;;;;25.23;8.10;;;;;;;;;;5054160;28;20207;-83
2024/01/04 03:00:55;;;;;;;52.80;10.68;;;;;;;;;;5053389;28;20257;-83
2024/01/04 03:03:22;;;;;;;5.57;2.95;;;;;;;;;;5052851;28;20212;-81
2024/01/04 03:05:49;;;;;;;9.48;3.60;;;;;;;;;;5052626;28;20196;-82
2024/01/04 03:08:16;;;;;;;21.85;5.85;;;;;;;;;;5052405;28;20602;-81
2024/01/04 03:10:43;;;;;;;49.08;13.35;;;;;;;;;;5052344;28;20247;-81
2024/01/04 03:13:11;;;;;;;42.28;8.88;;;;;;;;;;5052533;28;20212;-82
2024/01/04 03:15:37;;;;;;;17.67;4.88;;;;;;;;;;5052310;28;20273;-82
2024/01/04 03:18:05;;;;;;;26.83;6.55;;;;;;;;;;5052800;28;20211;-81
2024/01/04 03:20:32;;;;;;;34.83;20.00;;;;;;;;;;5052715;28;20258;-82
2024/01/04 03:23:00;;;;;;;20.30;4.65;;;;;;;;;;5052673;28;20212;-81
2024/01/04 03:25:26;;;;;;;19.65;4.38;;;;;;;;;;5052594;28;20207;-82
2024/01/04 03:27:54;;;;;;;21.02;5.20;;;;;;;;;;5052367;28;20203;-81
2024/01/04 03:30:21;;;;;;;37.20;9.70;;;;;;;;;;5052198;28;20216;-81
2024/01/04 03:32:48;;;;;;;47.42;10.60;;;;;;;;;;5052585;28;20196;-81
2024/01/04 03:35:15;;;;;;;23.45;5.97;;;;;;;;;;5052429;28;20207;-81
2024/01/04 03:37:43;;;;;;;23.55;5.22;;;;;;;;;;5052448;28;20539;-81
2024/01/04 03:40:10;;;;;;;46.55;8.93;;;;;;;;;;5051923;28;20587;-81
2024/01/04 03:42:37;;;;;;;65.93;24.65;;;;;;;;;;5052215;28;20333;-81
2024/01/04 03:45:06;;;;;;;16.77;4.68;;;;;;;;;;5051852;28;20216;-81
2024/01/04 03:47:34;;;;;;;43.25;8.75;;;;;;;;;;5052412;28;20199;-81
2024/01/04 03:50:02;;;;;;;44.28;9.63;;;;;;;;;;5051723;28;20266;-81
2024/01/04 03:52:30;;;;;;;120.20;40.65;;;;;;;;;;5052449;28;20702;-81
2024/01/04 03:54:56;;;;;;;31.27;7.03;;;;;;;;;;5050919;28;20231;-81
2024/01/04 03:57:24;;;;;;;16.63;4.32;;;;;;;;;;5052240;28;20212;-81
2024/01/04 03:59:51;;;;;;;13.23;3.88;;;;;;;;;;5051941;28;20239;-82
2024/01/04 04:02:18;;;;;;;25.30;6.60;;;;;;;;;;5052823;28;20199;-82
2024/01/04 04:04:45;;;;;;;50.17;15.98;;;;;;;;;;5052817;28;20207;-82
2024/01/04 04:07:12;;;;;;;30.73;7.60;;;;;;;;;;5053410;28;20196;-83
2024/01/04 04:09:39;;;;;;;22.67;5.75;;;;;;;;;;5051015;28;20302;-82
2024/01/04 04:12:07;;;;;;;8.40;3.85;;;;;;;;;;5053216;28;20196;-83
2024/01/04 04:14:34;;;;;;;23.92;14.35;;;;;;;;;;5053050;28;20530;-83
2024/01/04 04:17:02;;;;;;;21.38;4.85;;;;;;;;;;5051412;28;20242;-79
2024/01/04 04:19:29;;;;;;;26.02;6.13;;;;;;;;;;5051862;28;20663;-77
2024/01/04 04:21:56;;;;;;;15.77;5.38;;;;;;;;;;5052134;28;20619;-82
2024/01/04 04:24:26;;;;;;;29.27;8.25;;;;;;;;;;5051638;28;20257;-79
2024/01/04 04:26:53;;;;;;;12.18;5.07;;;;;;;;;;5051631;28;20204;-79
2024/01/04 04:29:20;;;;;;;9.68;3.63;;;;;;;;;;5050466;28;20203;-80
2024/01/04 04:31:48;;;;;;;14.27;4.70;;;;;;;;;;5049533;28;20623;-80
2024/01/04 04:34:15;;;;;;;10.55;3.67;;;;;;;;;;5049909;28;20208;-81
2024/01/04 04:36:43;;;;;;;29.92;12.18;;;;;;;;;;5050184;28;20687;-80
2024/01/04 04:39:10;;;;;;;11.32;4.60;;;;;;;;;;5046010;28;20204;-80
2024/01/04 04:41:40;;;;;;;28.58;7.07;;;;;;;;;;5047728;28;20196;-80
2024/01/04 04:44:07;;;;;;;15.70;5.07;;;;;;;;;;5047417;28;20239;-79
2024/01/04 04:46:35;;;;;;;28.27;10.02;;;;;;;;;;5049311;28;20204;-79
2024/01/04 04:49:02;;;;;;;28.50;8.00;;;;;;;;;;5051617;28;20204;-80
2024/01/04 04:51:29;;;;;;;24.27;7.18;;;;;;;;;;5052756;28;20285;-79
2024/01/04 04:53:56;;;;;;;15.00;5.82;;;;;;;;;;5054744;28;20290;-80
2024/01/04 04:56:23;;;;;;;12.85;5.80;;;;;;;;;;5055036;28;20231;-80
2024/01/04 04:58:50;;;;;;;34.50;18.27;;;;;;;;;;5043902;28;20220;-80
2024/01/04 05:01:18;;;;;;;30.30;16.88;;;;;;;;;;5053410;28;20227;-79
2024/01/04 05:03:45;;;;;;;20.40;8.50;;;;;;;;;;5052799;28;20393;-80
2024/01/04 05:06:15;;;;;;;34.95;11.05;;;;;;;;;;5044813;28;20224;-81
2024/01/04 05:08:43;;;;;;;28.00;13.13;;;;;;;;;;5051557;28;20227;-80
2024/01/04 05:11:11;;;;;;;22.80;9.48;;;;;;;;;;5053514;28;20236;-80
2024/01/04 05:13:38;;;;;;;21.67;9.95;;;;;;;;;;5051145;28;20281;-80
2024/01/04 05:16:06;;;;;;;26.02;8.60;;;;;;;;;;5053930;28;20228;-80
2024/01/04 05:18:33;;;;;;;16.90;8.27;;;;;;;;;;5052036;28;20220;-81
2024/01/04 05:21:00;;;;;;;20.77;8.90;;;;;;;;;;5053269;28;20270;-81
2024/01/04 05:23:27;;;;;;;20.95;8.02;;;;;;;;;;5053315;28;20681;-81
2024/01/04 05:25:54;;;;;;;15.05;7.78;;;;;;;;;;5052802;28;20220;-81
2024/01/04 05:28:21;;;;;;;24.38;8.48;;;;;;;;;;5051599;28;20319;-80
2024/01/04 05:30:49;;;;;;;33.13;12.82;;;;;;;;;;5053561;28;20243;-81
2024/01/04 05:33:15;;;;;;;13.88;6.78;;;;;;;;;;5053563;28;20224;-81
2024/01/04 05:35:43;;;;;;;20.90;8.38;;;;;;;;;;5053751;28;20318;-83
2024/01/04 05:38:10;;;;;;;24.77;7.97;;;;;;;;;;5053913;28;20231;-82
2024/01/04 05:40:37;;;;;;;31.17;12.35;;;;;;;;;;5053561;28;20215;-83
2024/01/04 05:43:04;;;;;;;21.30;9.63;;;;;;;;;;5053452;28;20239;-83
2024/01/04 05:45:31;;;;;;;24.70;9.13;;;;;;;;;;5053789;28;20278;-81
2024/01/04 05:47:59;;;;;;;21.25;10.13;;;;;;;;;;5054234;28;20599;-82
2024/01/04 05:50:26;;;;;;;17.58;9.73;;;;;;;;;;5053214;28;21029;-83
2024/01/04 05:52:53;;;;;;;26.70;12.38;;;;;;;;;;5052107;28;20224;-81
2024/01/04 05:55:20;;;;;;;21.10;8.82;;;;;;;;;;5053156;28;20232;-82
2024/01/04 05:57:47;;;;;;;22.65;12.15;;;;;;;;;;5052587;28;20231;-81
2024/01/04 06:00:15;;;;;;;19.55;10.30;;;;;;;;;;5053121;28;20232;-82
2024/01/04 06:02:44;;;;;;;24.25;11.90;;;;;;;;;;5053648;28;20322;-81
2024/01/04 06:05:12;;;;;;;29.73;10.95;;;;;;;;;;5053241;28;20232;-82
2024/01/04 06:07:39;;;;;;;33.58;10.43;;;;;;;;;;5052714;28;20231;-82
2024/01/04 06:10:07;;;;;;;38.08;12.20;;;;;;;;;;5052477;28;20236;-84
2024/01/04 06:12:34;;;;;;;31.58;14.43;;;;;;;;;;5052082;28;20246;-82
2024/01/04 06:15:03;;;;;;;23.63;9.88;;;;;;;;;;5052543;28;20239;-84
2024/01/04 06:17:30;;;;;;;25.17;9.40;;;;;;;;;;5052729;28;20228;-83
2024/01/04 06:19:57;;;;;;;24.33;8.98;;;;;;;;;;5052590;28;20822;-84
2024/01/04 06:22:24;;;;;;;23.83;9.18;;;;;;;;;;5053148;28;20224;-82
2024/01/04 06:24:52;;;;;;;43.03;16.40;;;;;;;;;;5052392;28;20235;-83
2024/01/04 06:27:19;;;;;;;18.08;8.73;;;;;;;;;;5052209;28;20228;-83
2024/01/04 06:29:46;;;;;;;22.92;9.15;;;;;;;;;;5051721;28;20232;-83
2024/01/04 06:32:13;;;;;;;26.33;10.55;;;;;;;;;;5052165;28;20232;-83
2024/01/04 06:34:41;;;;;;;41.10;14.43;;;;;;;;;;5052064;28;20232;-84
2024/01/04 06:37:09;;;;;;;31.58;10.52;;;;;;;;;;5052435;28;20612;-82
2024/01/04 06:39:37;;;;;;;41.03;11.25;;;;;;;;;;5052260;28;20243;-82
2024/01/04 06:42:04;;;;;;;19.33;8.73;;;;;;;;;;5050887;28;20273;-83
2024/01/04 06:44:33;;;;;;;33.88;12.35;;;;;;;;;;5051788;28;20244;-82
2024/01/04 06:47:14;;;;;;;30.77;9.65;;;;;;;;;;5052623;28;20300;-83
2024/01/04 06:49:41;;;;;;;23.80;9.35;;;;;;;;;;5051770;28;20244;-82
2024/01/04 06:52:09;;;;;;;24.88;10.23;;;;;;;;;;5052179;28;20271;-81
2024/01/04 06:54:36;;;;;;;23.92;8.25;;;;;;;;;;5052157;28;20232;-83
2024/01/04 06:57:06;;;;;;;45.30;17.27;;;;;;;;;;5050933;28;20255;-82
2024/01/04 06:59:34;;;;;;;21.38;8.30;;;;;;;;;;5051600;28;20224;-82
2024/01/04 07:02:04;;;;;;;28.35;11.27;;;;;;;;;;5051871;28;20235;-83
2024/01/04 07:04:32;;;;;;;19.60;8.82;;;;;;;;;;5050742;28;20254;-82
2024/01/04 07:06:59;;;;;;;22.77;9.88;;;;;;;;;;5051321;28;20256;-82
2024/01/04 07:09:26;;;;;;;26.20;9.88;;;;;;;;;;5051661;28;20588;-82
2024/01/04 07:11:54;;;;;;;33.08;11.05;;;;;;;;;;5049646;28;20705;-82
2024/01/04 07:14:21;;;;;;;31.88;9.48;;;;;;;;;;5051218;28;20791;-83
2024/01/04 07:16:49;;;;;;;32.40;11.07;;;;;;;;;;5051290;28;20591;-82
2024/01/04 07:19:16;;;;;;;29.27;11.23;;;;;;;;;;5051646;28;20226;-82
2024/01/04 07:21:44;;;;;;;21.73;8.32;;;;;;;;;;5051010;28;20232;-82
2024/01/04 07:24:11;;;;;;;18.92;7.82;;;;;;;;;;5051828;28;20242;-83
2024/01/04 07:26:38;;;;;;;12.10;7.00;;;;;;;;;;5050499;28;20318;-82
2024/01/04 07:29:05;;;;;;;24.20;8.98;;;;;;;;;;5051551;28;20228;-82
2024/01/04 07:31:32;;;;;;;31.48;9.50;;;;;;;;;;5051258;28;20313;-81
2024/01/04 07:34:00;;;;;;;16.25;7.45;;;;;;;;;;5051668;28;20296;-82
2024/01/04 07:36:27;;;;;;;25.08;8.05;;;;;;;;;;5051072;28;20259;-82
2024/01/04 07:38:54;;;;;;;55.08;29.35;;;;;;;;;;5050285;28;20236;-82
2024/01/04 07:41:21;;;;;;;26.85;8.70;;;;;;;;;;5050923;28;20232;-81
2024/01/04 07:43:49;;;;;;;27.13;8.02;;;;;;;;;;5050852;28;20235;-82
2024/01/04 07:46:16;;;;;;;19.03;6.67;;;;;;;;;;5051189;28;20235;-82
2024/01/04 07:48:46;;;;;;;23.48;7.38;;;;;;;;;;5051636;28;20282;-82
2024/01/04 07:51:13;;;;;;;22.00;8.00;;;;;;;;;;5051121;28;20228;-82
2024/01/04 07:53:41;;;;;;;29.27;7.63;;;;;;;;;;5051904;28;20257;-82
2024/01/04 07:56:08;;;;;;;25.05;8.32;;;;;;;;;;5052148;28;20196;-82
2024/01/04 07:58:35;;;;;;;19.20;6.68;;;;;;;;;;5052001;28;20204;-82
2024/01/04 08:01:02;;;;;;;32.10;14.98;;;;;;;;;;5051937;28;20204;-82
2024/01/04 08:03:30;;;;;;;27.33;7.78;;;;;;;;;;5051670;28;20639;-82
2024/01/04 08:05:58;;;;;;;23.10;7.03;;;;;;;;;;5052139;28;20258;-82
2024/01/04 08:08:28;;;;;;;15.73;6.18;;;;;;;;;;5051621;28;20661;-82
2024/01/04 08:10:55;;;;;;;79.78;22.02;;;;;;;;;;5051660;28;20300;-82
2024/01/04 08:13:22;;;;;;;31.77;7.75;;;;;;;;;;5051760;28;20195;-82
2024/01/04 08:15:50;;;;;;;28.75;7.75;;;;;;;;;;5054139;28;20196;-82
2024/01/04 08:18:19;;;;;;;49.88;27.10;;;;;;;;;;5055987;28;20238;-83
2024/01/04 08:20:46;;;;;;;221.63;110.53;;;;;;;;;;5054336;28;20207;-82
2024/01/04 08:23:13;;;;;;;339.58;152.32;;;;;;;;;;5055965;28;20735;-82
2024/01/04 08:25:41;;;;;;;387.85;156.80;;;;;;;;;;5055440;28;20200;-83
2024/01/04 08:28:10;;;;;;;280.08;122.03;;;;;;;;;;5055196;28;20191;-82
2024/01/04 08:30:37;;;;;;;420.33;166.38;;;;;;;;;;5055049;28;20296;-83
2024/01/04 08:33:05;;;;;;;455.65;216.32;;;;;;;;;;5055535;28;20759;-82
2024/01/04 08:35:32;;;;;;;438.33;215.23;;;;;;;;;;5054490;28;20210;-82
2024/01/04 08:37:59;;;;;;;365.33;174.55;;;;;;;;;;5054326;28;20227;-82
2024/01/04 08:40:27;;;;;;;196.50;94.18;;;;;;;;;;5055462;28;20653;-82
2024/01/04 08:42:54;;;;;;;110.68;42.22;;;;;;;;;;5055007;28;20236;-82
2024/01/04 08:45:21;;;;;;;52.83;22.70;;;;;;;;;;5053874;28;20223;-82
2024/01/04 08:47:48;;;;;;;40.75;20.17;;;;;;;;;;5054168;28;20223;-83
2024/01/04 08:50:15;;;;;;;34.67;15.43;;;;;;;;;;5055458;28;20211;-82
2024/01/04 08:52:43;;;;;;;39.42;15.07;;;;;;;;;;5055868;28;20231;-82
2024/01/04 08:55:10;;;;;;;37.30;17.60;;;;;;;;;;5054904;28;20211;-82
2024/01/04 08:57:37;;;;;;;42.53;18.60;;;;;;;;;;5055011;28;20199;-81
2024/01/04 09:00:08;;;;;;;41.08;14.18;;;;;;;;;;5054968;28;20200;-82
2024/01/04 09:02:35;;;;;;;46.08;19.15;;;;;;;;;;5054876;28;20192;-82
2024/01/04 09:05:02;;;;;;;60.03;23.08;;;;;;;;;;5054803;28;20208;-82
2024/01/04 09:07:30;;;;;;;55.78;20.40;;;;;;;;;;5054359;28;20200;-81
2024/01/04 09:09:57;;;;;;;59.50;30.30;;;;;;;;;;5053276;28;20200;-82
2024/01/04 09:12:26;;;;;;;406.90;104.55;;;;;;;;;;5054552;28;20223;-81
2024/01/04 09:14:53;;;;;;;623.47;121.10;;;;;;;;;;5054650;28;20232;-82
2024/01/04 09:17:21;;;;;;;818.22;166.43;;;;;;;;;;5054624;28;20203;-82
2024/01/04 09:19:49;;;;;;;357.67;61.67;;;;;;;;;;5054403;28;20199;-82
2024/01/04 09:22:17;;;;;;;378.73;59.78;;;;;;;;;;5054600;28;20207;-81
2024/01/04 09:24:44;;;;;;;383.50;120.13;;;;;;;;;;5054030;28;20196;-81
2024/01/04 09:27:12;;;;;;;687.75;347.67;;;;;;;;;;5053276;28;20227;-82
2024/01/04 09:29:39;;;;;;;498.30;251.95;;;;;;;;;;5054404;28;20299;-82
2024/01/04 09:32:06;;;;;;;450.88;176.10;;;;;;;;;;5054142;28;20227;-82
2024/01/04 09:34:33;;;;;;;498.60;202.98;;;;;;;;;;5053128;28;20208;-82
2024/01/04 09:37:00;;;;;;;173.88;78.55;;;;;;;;;;5054051;28;20208;-81
2024/01/04 09:39:28;;;;;;;142.05;73.22;;;;;;;;;;5053859;28;20215;-81
2024/01/04 09:41:56;;;;;;;128.13;62.95;;;;;;;;;;5054066;28;20200;-81
2024/01/04 09:44:24;;;;;;;104.50;57.42;;;;;;;;;;5052331;28;20239;-81
2024/01/04 09:46:55;;;;;;;62.25;31.95;;;;;;;;;;5053906;28;20210;-81
2024/01/04 09:49:22;;;;;;;50.72;26.33;;;;;;;;;;5053546;28;20699;-81
2024/01/04 09:51:51;;;;;;;47.72;19.75;;;;;;;;;;5053909;28;20228;-81
2024/01/04 09:54:19;;;;;;;41.88;18.10;;;;;;;;;;5053931;28;20196;-81
2024/01/04 09:56:49;;;;;;;38.58;18.95;;;;;;;;;;5052444;28;20222;-81
2024/01/04 09:59:16;;;;;;;40.58;21.45;;;;;;;;;;5053569;28;20195;-81
2024/01/04 10:01:45;;;;;;;46.28;24.70;;;;;;;;;;5053201;28;20204;-81
2024/01/04 10:04:14;;;;;;;49.67;15.95;;;;;;;;;;5052111;28;20204;-81
2024/01/04 10:06:45;;;;;;;34.92;16.88;;;;;;;;;;5052356;28;20204;-82
2024/01/04 10:09:38;;;;;;;164.73;43.60;;;;;;;;;;5053766;28;20200;-82
2024/01/04 10:12:08;;;;;;;30.25;14.50;;;;;;;;;;5053522;28;20224;-82
2024/01/04 10:14:36;;;;;;;41.60;18.98;;;;;;;;;;5052096;28;20249;-82
2024/01/04 10:17:04;;;;;;;29.45;15.88;;;;;;;;;;5053522;28;20258;-82
2024/01/04 10:19:32;;;;;;;32.50;13.43;;;;;;;;;;5053421;28;20259;-82
2024/01/04 10:22:03;;;;;;;47.65;17.13;;;;;;;;;;5051831;28;20211;-81
2024/01/04 10:24:38;;;;;;;53.90;17.25;;;;;;;;;;5053073;28;20250;-81
2024/01/04 10:27:10;;;;;;;31.23;15.02;;;;;;;;;;5053142;28;20204;-81
2024/01/04 10:29:38;;;;;;;41.17;17.48;;;;;;;;;;5053334;28;20203;-81
2024/01/04 10:32:09;;;;;;;81.80;32.55;;;;;;;;;;5053033;28;20549;-81
2024/01/04 10:34:37;;;;;;;65.75;20.92;;;;;;;;;;5051653;28;20290;-81
2024/01/04 10:37:17;;;;;;;35.58;14.95;;;;;;;;;;5051685;28;20227;-81
2024/01/04 10:39:59;;;;;;;32.97;12.95;;;;;;;;;;5051878;28;20207;-81
2024/01/04 10:42:26;;;;;;;75.40;29.58;;;;;;;;;;5051467;28;20203;-81
2024/01/04 10:44:54;;;;;;;51.55;17.60;;;;;;;;;;5052704;28;20298;-81
2024/01/04 10:47:23;;;;;;;35.38;15.02;;;;;;;;;;5051388;28;20207;-81
2024/01/04 10:49:57;;;;;;;28.08;13.40;;;;;;;;;;5053005;28;20200;-81
2024/01/04 10:52:33;;;;;;;85.55;28.27;;;;;;;;;;5052516;28;20223;-81
2024/01/04 10:55:02;;;;;;;84.50;23.58;;;;;;;;;;5052340;28;20210;-80
2024/01/04 10:57:31;;;;;;;37.10;14.40;;;;;;;;;;5051258;28;20641;-81
2024/01/04 11:00:01;;;;;;;51.72;17.45;;;;;;;;;;5052935;28;20195;-81
2024/01/04 11:02:29;;;;;;;58.58;18.27;;;;;;;;;;5052942;28;20215;-81
2024/01/04 11:04:56;;;;;;;66.75;19.45;;;;;;;;;;5051273;28;20193;-81
2024/01/04 11:07:25;;;;;;;47.72;15.55;;;;;;;;;;5052747;28;20211;-81
2024/01/04 11:09:53;;;;;;;44.88;15.05;;;;;;;;;;5051317;28;20200;-82
2024/01/04 11:12:21;;;;;;;29.13;12.02;;;;;;;;;;5051015;28;20813;-82
2024/01/04 11:14:48;;;;;;;43.17;19.63;;;;;;;;;;5052215;28;20214;-81
2024/01/04 11:17:43;;;;;;;39.53;14.57;;;;;;;;;;5052402;28;20250;-81
2024/01/04 11:20:20;;;;;;;31.77;12.70;;;;;;;;;;5051116;28;20188;-81
2024/01/04 11:23:22;;;;;;;33.65;13.68;;;;;;;;;;5052400;28;20732;-81
2024/01/04 11:26:17;;;;;;;44.95;19.77;;;;;;;;;;5051061;28;20208;-81
2024/01/04 11:28:45;;;;;;;36.38;14.02;;;;;;;;;;5052276;28;20204;-82
2024/01/04 11:31:12;;;;;;;26.80;11.40;;;;;;;;;;5034776;28;20283;-81
2024/01/04 11:33:42;;;;;;;23.63;10.10;;;;;;;;;;5050717;28;20222;-81
2024/01/04 11:36:15;;;;;;;33.95;17.83;;;;;;;;;;5050890;28;20214;-81
2024/01/04 11:38:45;;;;;;;24.95;10.02;;;;;;;;;;5052528;28;20702;-81
2024/01/04 11:41:12;;;;;;;27.92;11.10;;;;;;;;;;5050919;28;20208;-81
2024/01/04 11:43:41;;;;;;;23.92;10.35;;;;;;;;;;5051974;28;20232;-81
2024/01/04 11:46:22;;;;;;;127.97;46.95;;;;;;;;;;5051426;28;21105;-81
2024/01/04 11:49:00;;;;;;;39.58;11.90;;;;;;;;;;5051868;28;21270;-81
2024/01/04 11:51:30;;;;;;;49.70;13.98;;;;;;;;;;5050135;28;20211;-81
2024/01/04 11:53:58;;;;;;;29.35;9.43;;;;;;;;;;5050405;28;20223;-81
2024/01/04 11:56:26;;;;;;;91.20;24.67;;;;;;;;;;5050189;28;20196;-81
2024/01/04 11:58:53;;;;;;;29.98;10.27;;;;;;;;;;5052048;28;20218;-81
2024/01/04 12:01:23;;;;;;;22.08;7.60;;;;;;;;;;5051451;28;20207;-81
2024/01/04 12:03:51;;;;;;;22.98;8.77;;;;;;;;;;5051802;28;20196;-81
2024/01/04 12:06:21;;;;;;;16.55;6.45;;;;;;;;;;5050075;28;20242;-81
2024/01/04 12:08:48;;;;;;;48.00;22.55;;;;;;;;;;5050523;28;20215;-81
2024/01/04 12:11:16;;;;;;;23.17;8.13;;;;;;;;;;5050112;28;20203;-81
2024/01/04 12:13:45;;;;;;;18.42;7.68;;;;;;;;;;5050278;28;20719;-81
2024/01/04 12:16:13;;;;;;;49.78;18.98;;;;;;;;;;5051159;28;20563;-81
2024/01/04 12:18:40;;;;;;;53.15;22.63;;;;;;;;;;5051610;28;20207;-81
2024/01/04 12:21:08;;;;;;;25.60;11.77;;;;;;;;;;5051213;28;20207;-81
2024/01/04 12:23:44;;;;;;;27.40;9.63;;;;;;;;;;5050491;28;20196;-81
2024/01/04 12:26:11;;;;;;;16.95;6.65;;;;;;;;;;5050199;28;20212;-81
2024/01/04 12:28:40;;;;;;;13.50;6.38;;;;;;;;;;5050515;28;20196;-81
2024/01/04 12:31:08;;;;;;;27.52;10.43;;;;;;;;;;5049724;28;20235;-82
2024/01/04 12:33:36;;;;;;;45.90;11.82;;;;;;;;;;5049905;28;20711;-82
2024/01/04 12:36:04;;;;;;;19.58;6.47;;;;;;;;;;5051037;28;20250;-81
2024/01/04 12:38:31;;;;;;;38.53;9.85;;;;;;;;;;5051393;28;20254;-81
2024/01/04 12:40:58;;;;;;;30.17;14.82;;;;;;;;;;5051298;28;20188;-80
2024/01/04 12:43:25;;;;;;;13.13;4.45;;;;;;;;;;5051368;28;20224;-81
2024/01/04 12:46:02;;;;;;;18.98;6.38;;;;;;;;;;5051123;28;20200;-81
2024/01/04 12:48:30;;;;;;;36.75;10.55;;;;;;;;;;5051385;28;20184;-81
2024/01/04 12:51:14;;;;;;;34.92;17.60;;;;;;;;;;5049981;28;20204;-81
2024/01/04 12:53:45;;;;;;;45.85;10.40;;;;;;;;;;5050563;28;20254;-81
2024/01/04 12:56:14;;;;;;;18.17;5.82;;;;;;;;;;5033841;28;20204;-81
2024/01/04 12:58:43;;;;;;;28.42;8.77;;;;;;;;;;5050558;28;20204;-81
2024/01/04 13:01:09;;;;;;;53.20;13.60;;;;;;;;;;5049902;28;20210;-81
2024/01/04 13:03:37;;;;;;;19.10;5.85;;;;;;;;;;5054391;28;20212;-81
2024/01/04 13:06:04;;;;;;;21.05;6.57;;;;;;;;;;5053276;28;20219;-81
2024/01/04 13:08:32;;;;;;;14.13;5.15;;;;;;;;;;5053158;28;20207;-81
2024/01/04 13:11:01;;;;;;;23.48;6.78;;;;;;;;;;5054234;28;20265;-81
2024/01/04 13:13:28;;;;;;;29.45;13.35;;;;;;;;;;5054217;28;20563;-81
2024/01/04 13:16:00;;;;;;;9.43;4.70;;;;;;;;;;5054413;28;20547;-81
2024/01/04 13:18:27;;;;;;;29.15;9.10;;;;;;;;;;5054428;28;20215;-81
2024/01/04 13:20:55;;;;;;;28.13;14.27;;;;;;;;;;5053177;28;20188;-81
2024/01/04 13:23:22;;;;;;;137.02;63.33;;;;;;;;;;5052942;28;20210;-81
2024/01/04 13:25:49;;;;;;;125.35;59.10;;;;;;;;;;5054013;28;20208;-81
2024/01/04 13:28:16;;;;;;;64.20;27.65;;;;;;;;;;5054056;28;20211;-81
2024/01/04 13:30:44;;;;;;;46.58;20.95;;;;;;;;;;5053418;28;20238;-81
2024/01/04 13:33:11;;;;;;;22.05;9.45;;;;;;;;;;5050962;28;20220;-81
2024/01/04 13:35:38;;;;;;;28.65;12.20;;;;;;;;;;5041004;28;20232;-82
2024/01/04 13:38:07;;;;;;;21.73;8.15;;;;;;;;;;5053508;28;20224;-82
2024/01/04 13:40:35;;;;;;;20.52;10.68;;;;;;;;;;5045831;28;20761;-82
2024/01/04 13:43:02;;;;;;;21.60;10.85;;;;;;;;;;5052553;28;20232;-82
2024/01/04 13:45:30;;;;;;;16.25;9.75;;;;;;;;;;5051815;28;20246;-83
2024/01/04 13:47:58;;;;;;;38.28;11.38;;;;;;;;;;5047263;28;20231;-83
2024/01/04 13:50:25;;;;;;;17.30;7.80;;;;;;;;;;5039440;28;20236;-83
2024/01/04 13:52:53;;;;;;;19.30;8.50;;;;;;;;;;5045464;28;20250;-83
2024/01/04 13:55:20;;;;;;;31.67;15.85;;;;;;;;;;5050196;28;20318;-82
2024/01/04 13:57:47;;;;;;;19.95;9.18;;;;;;;;;;5053614;28;20216;-82
2024/01/04 14:00:15;;;;;;;37.70;10.95;;;;;;;;;;5052842;28;20224;-81
2024/01/04 14:02:42;;;;;;;33.45;10.90;;;;;;;;;;5052784;28;20220;-82
2024/01/04 14:05:10;;;;;;;24.48;9.18;;;;;;;;;;5052497;28;20228;-82
2024/01/04 14:07:37;;;;;;;62.13;20.83;;;;;;;;;;5053285;28;20235;-82
2024/01/04 14:10:07;;;;;;;45.75;13.70;;;;;;;;;;5052866;28;20223;-82
2024/01/04 14:12:35;;;;;;;41.13;12.68;;;;;;;;;;5051453;28;20239;-82
2024/01/04 14:15:04;;;;;;;25.92;10.60;;;;;;;;;;5052841;28;20236;-82
2024/01/04 14:17:32;;;;;;;42.60;19.65;;;;;;;;;;5052510;28;20720;-83
2024/01/04 14:20:00;;;;;;;30.90;11.07;;;;;;;;;;5050896;28;20236;-82
2024/01/04 14:22:29;;;;;;;21.33;9.30;;;;;;;;;;5052820;28;20307;-81
2024/01/04 14:24:56;;;;;;;45.00;13.82;;;;;;;;;;5051199;28;20235;-81
2024/01/04 14:27:24;;;;;;;17.52;9.55;;;;;;;;;;5052688;28;20232;-85